Aeroporto :
LOGIN :

Iscrizione | Disclaimer

   EN    FR    IT 

 










Sommario :    VFR   VFR Marginale   IFR   IFR Intensivo   IFR Molto Intensivo
Visibilità : 
Base nubi : 
>= 8 km
>= 3000ft
5 / 8 km
1000 / 3000 ft
1500m / 5 km
500 / 1000 ft
800 / 1500m
200 / 500 ft
< 800m
< 200 ft
Simboli :   Temporali  Nebbia  Neve Forte  Precipitazioni Forti  Vento > 20 kt
SIGMETs :   Varie  Temporali  Ghiacco  Turbolenza  Onda orograficha  Ceneri Vulcaniche







- Altitudine del aeroporto : 401 ft
- Codice IATA : LEQ
- Carte del aeroporto


EGHC - Land's End

ULTIMO METAR :
  • 181620Z 07009KT 9999 FEW006 SCT022 14/13 Q1011

METARs OBSOLETI :
  • 181550Z 07010KT 9999 FEW006 SCT022 14/12 Q1011
  • 181520Z 06007KT 9999 FEW010 BKN032 14/12 Q1011
  • 181450Z 07009KT 9999 SCT032 14/12 Q1011
  • 181420Z 06009KT 9999 SCT032 13/12 Q1012
  • 181350Z 07010KT 9999 -RA SCT008 13/11 Q1012

TAF TAF EGHC
Valido dal 18 a 15 ore il 18 a 18 ore UTC


181401Z 1815/1818 09009KT 9999 FEW004 SCT030
PROB40
TEMPO 1815/1818 7000 RA BKN004
Nessun NOTAM noto per questo aeroporto.



MetMap, La meteo Aeronautica in un colpo d'occhio ! - Copyright ORBIFLY Dicembre 2007 - Disclaimer

ORBIFLY MET'MAP TEAM :

Programmazione e sviluppo : Alexandra Zaïnal
Concezione e sviluppo : Baudouin d'Aumeries
Co-Programmazione e sviluppo : Marc-Olivier Méhu
Supporto tecnico e logistico : Manuel Goepfert
Aiuto per la traduzione : Arnaldo La Scala

Contatto : metmap@orbifly.com




FONTI E CREDITI :

   NOAA